Time;durP1;ratioP1;P1;durP2;ratioP2;P2;SDS_P1;SDS_P2;PMS_P1;PMS_P2;Temp;Humidity;BMP_temperature;BMP_pressure;BME280_temperature;BME280_humidity;BME280_pressure;Samples;Min_cycle;Max_cycle;Signal;HPM_P1;HPM_P2
2022/04/11 00:01:24;;;;;;;3.47;1.83;;;5.60;99.90;;;;;;5097035;28;20468;-70
2022/04/11 00:03:51;;;;;;;5.13;2.00;;;5.60;99.90;;;;;;5097205;28;20502;-70
2022/04/11 00:06:20;;;;;;;3.40;1.60;;;5.60;99.90;;;;;;5097437;28;20461;-70
2022/04/11 00:08:48;;;;;;;3.57;1.77;;;5.60;99.90;;;;;;5097232;28;20828;-70
2022/04/11 00:11:15;;;;;;;7.60;2.70;;;5.60;99.90;;;;;;5096950;28;20972;-70
2022/04/11 00:13:42;;;;;;;4.03;1.87;;;5.50;99.90;;;;;;5097350;28;20457;-70
2022/04/11 00:16:08;;;;;;;7.33;2.17;;;5.50;99.90;;;;;;5097752;28;20457;-70
2022/04/11 00:18:35;;;;;;;6.90;2.20;;;5.50;99.90;;;;;;5097350;28;20489;-71
2022/04/11 00:21:02;;;;;;;5.43;1.80;;;5.50;99.90;;;;;;5098068;28;20449;-70
2022/04/11 00:23:29;;;;;;;8.10;2.40;;;5.50;99.90;;;;;;5098256;28;20457;-70
2022/04/11 00:25:57;;;;;;;4.57;1.80;;;5.50;99.90;;;;;;5097598;28;20453;-72
2022/04/11 00:28:23;;;;;;;7.10;4.03;;;5.50;99.90;;;;;;5097118;28;20453;-72
2022/04/11 00:30:50;;;;;;;7.23;2.13;;;5.50;99.90;;;;;;5097120;28;20457;-72
2022/04/11 00:33:16;;;;;;;4.87;2.50;;;5.40;99.90;;;;;;5097218;28;20453;-72
2022/04/11 00:35:46;;;;;;;4.20;1.57;;;5.40;99.90;;;;;;5097719;28;20460;-72
2022/04/11 00:38:13;;;;;;;2.57;1.70;;;5.40;99.90;;;;;;5098475;28;20926;-72
2022/04/11 00:40:39;;;;;;;4.57;2.30;;;5.40;99.90;;;;;;5098242;28;20480;-72
2022/04/11 00:43:08;;;;;;;3.03;2.20;;;5.30;99.90;;;;;;5097725;28;20458;-71
2022/04/11 00:45:34;;;;;;;4.53;2.10;;;5.30;99.90;;;;;;5096669;28;20943;-72
2022/04/11 00:48:03;;;;;;;3.50;1.67;;;5.30;99.90;;;;;;5096904;28;20453;-71
2022/04/11 00:50:30;;;;;;;4.70;2.13;;;5.20;99.90;;;;;;5096559;28;20930;-72
2022/04/11 00:53:00;;;;;;;7.57;2.20;;;5.20;99.90;;;;;;5097268;28;20491;-71
2022/04/11 00:55:27;;;;;;;6.87;2.83;;;5.20;99.90;;;;;;5096480;28;20481;-72
2022/04/11 00:57:54;;;;;;;4.27;2.63;;;5.20;99.90;;;;;;5096676;28;20928;-72
2022/04/11 01:00:22;;;;;;;5.10;2.30;;;5.20;99.90;;;;;;5096817;28;20457;-72
2022/04/11 01:02:49;;;;;;;5.40;2.10;;;5.10;99.90;;;;;;5097376;28;20458;-71
2022/04/11 01:05:16;;;;;;;8.47;2.40;;;5.10;99.90;;;;;;5096695;28;20457;-71
2022/04/11 01:07:45;;;;;;;1.90;1.80;;;5.00;99.90;;;;;;5096811;28;20458;-72
2022/04/11 01:10:12;;;;;;;3.93;2.20;;;5.00;99.90;;;;;;5096639;28;20457;-72
2022/04/11 01:12:38;;;;;;;4.23;2.07;;;5.00;99.90;;;;;;5095276;28;20488;-72
2022/04/11 01:15:06;;;;;;;3.43;1.93;;;5.00;99.90;;;;;;5096532;28;20789;-72
2022/04/11 01:17:36;;;;;;;5.73;2.20;;;5.00;99.90;;;;;;5096047;28;20457;-72
2022/04/11 01:20:11;;;;;;;7.53;2.27;;;5.00;99.90;;;;;;5096181;28;20776;-72
2022/04/11 01:22:40;;;;;;;6.83;2.07;;;4.90;99.90;;;;;;5096238;28;20453;-72
2022/04/11 01:25:07;;;;;;;8.63;2.33;;;4.90;99.90;;;;;;5095923;28;20466;-72
2022/04/11 01:27:34;;;;;;;5.90;2.57;;;4.90;99.90;;;;;;5095917;28;20491;-72
2022/04/11 01:30:01;;;;;;;4.30;2.33;;;4.90;99.90;;;;;;5095830;28;20468;-72
2022/04/11 01:32:29;;;;;;;4.17;2.20;;;4.90;99.90;;;;;;5095499;28;20469;-72
2022/04/11 01:34:55;;;;;;;3.63;1.87;;;4.80;99.90;;;;;;5095752;28;20492;-72
2022/04/11 01:37:22;;;;;;;3.90;2.60;;;4.80;99.90;;;;;;5095775;28;20457;-72
2022/04/11 01:39:50;;;;;;;5.50;2.40;;;4.80;99.90;;;;;;5095481;28;20457;-72
2022/04/11 01:42:17;;;;;;;4.73;1.97;;;4.70;99.90;;;;;;5095707;28;20449;-72
2022/04/11 01:44:46;;;;;;;3.13;2.20;;;4.70;99.90;;;;;;5095779;28;20469;-72
2022/04/11 01:47:14;;;;;;;4.67;2.10;;;4.70;99.90;;;;;;5095622;28;20468;-72
2022/04/11 01:49:41;;;;;;;4.37;2.10;;;4.60;99.90;;;;;;5095658;28;20454;-74
2022/04/11 01:52:08;;;;;;;4.47;2.30;;;4.60;99.90;;;;;;5095478;28;20481;-71
2022/04/11 01:54:35;;;;;;;14.17;2.50;;;4.60;99.90;;;;;;5095935;28;20489;-72
2022/04/11 01:57:03;;;;;;;5.33;2.20;;;4.60;99.90;;;;;;5097309;28;20754;-73
2022/04/11 01:59:31;;;;;;;3.93;2.27;;;4.60;99.90;;;;;;5096946;28;20529;-73
2022/04/11 02:01:58;;;;;;;7.73;2.93;;;4.50;99.90;;;;;;5095484;28;20548;-71
2022/04/11 02:04:25;;;;;;;8.40;2.37;;;4.50;99.90;;;;;;5095401;28;20465;-72
2022/04/11 02:06:51;;;;;;;7.07;3.17;;;4.50;99.90;;;;;;5095173;28;20465;-73
2022/04/11 02:09:18;;;;;;;5.50;1.90;;;4.50;99.90;;;;;;5095273;28;20460;-73
2022/04/11 02:11:45;;;;;;;4.23;2.23;;;4.50;99.90;;;;;;5094822;28;20504;-73
2022/04/11 02:14:13;;;;;;;5.60;2.60;;;4.50;99.90;;;;;;5095050;28;20457;-73
2022/04/11 02:16:39;;;;;;;5.33;2.60;;;4.40;99.90;;;;;;5095062;28;20860;-72
2022/04/11 02:19:09;;;;;;;4.20;2.37;;;4.40;99.90;;;;;;5095086;28;20484;-73
2022/04/11 02:21:35;;;;;;;5.30;2.57;;;4.40;99.90;;;;;;5095037;28;20838;-72
2022/04/11 02:24:02;;;;;;;6.83;2.67;;;4.40;99.90;;;;;;5094816;28;20844;-73
2022/04/11 02:26:29;;;;;;;3.20;2.20;;;4.40;99.90;;;;;;5095052;28;20457;-73
2022/04/11 02:28:55;;;;;;;14.53;2.87;;;4.50;99.90;;;;;;5094888;28;20456;-73
2022/04/11 02:31:23;;;;;;;6.17;2.40;;;4.40;99.90;;;;;;5094730;28;20507;-73
2022/04/11 02:33:50;;;;;;;4.33;2.53;;;4.50;99.90;;;;;;5094912;28;20460;-72
2022/04/11 02:36:17;;;;;;;6.23;2.77;;;4.50;99.90;;;;;;5094741;28;20499;-72
2022/04/11 02:38:43;;;;;;;6.23;2.60;;;4.40;99.90;;;;;;5094391;28;20453;-72
2022/04/11 02:41:10;;;;;;;4.80;2.63;;;4.40;99.90;;;;;;5094863;28;20457;-72
2022/04/11 02:43:36;;;;;;;3.90;2.13;;;4.40;99.90;;;;;;5095018;28;20461;-72
2022/04/11 02:46:03;;;;;;;6.43;2.60;;;4.40;99.90;;;;;;5094775;28;20514;-72
2022/04/11 02:48:31;;;;;;;6.27;2.80;;;4.40;99.90;;;;;;5094454;28;20458;-72
2022/04/11 02:50:58;;;;;;;4.23;2.40;;;4.40;99.90;;;;;;5094732;28;20536;-72
2022/04/11 02:53:25;;;;;;;5.70;2.50;;;4.40;99.90;;;;;;5094174;28;20481;-72
2022/04/11 02:55:51;;;;;;;8.53;2.60;;;4.40;99.90;;;;;;5094276;28;20852;-72
2022/04/11 02:58:18;;;;;;;7.70;2.50;;;4.40;99.90;;;;;;5094719;28;20457;-72
2022/04/11 03:00:44;;;;;;;3.83;2.20;;;4.40;99.90;;;;;;5094630;28;20460;-72
2022/04/11 03:03:11;;;;;;;5.10;2.13;;;4.40;99.90;;;;;;5094479;28;20454;-72
2022/04/11 03:05:39;;;;;;;4.23;2.00;;;4.40;99.90;;;;;;5094833;28;20480;-72
2022/04/11 03:08:06;;;;;;;4.50;2.47;;;4.40;99.90;;;;;;5094750;28;20449;-72
2022/04/11 03:10:33;;;;;;;6.40;2.73;;;4.40;99.90;;;;;;5094714;28;20461;-72
2022/04/11 03:13:00;;;;;;;5.80;2.40;;;4.40;99.90;;;;;;5094854;28;20488;-72
2022/04/11 03:15:26;;;;;;;4.73;1.97;;;4.40;99.90;;;;;;5094919;28;20589;-72
2022/04/11 03:17:53;;;;;;;5.80;2.13;;;4.30;99.90;;;;;;5094630;28;20492;-72
2022/04/11 03:20:20;;;;;;;7.80;3.10;;;4.40;99.90;;;;;;5094501;28;20457;-72
2022/04/11 03:22:48;;;;;;;5.43;2.40;;;4.40;99.90;;;;;;5094543;28;20457;-72
2022/04/11 03:25:15;;;;;;;7.57;2.80;;;4.40;99.90;;;;;;5094326;28;20453;-72
2022/04/11 03:27:41;;;;;;;12.30;2.23;;;4.30;99.90;;;;;;5094405;28;20510;-75
2022/04/11 03:30:09;;;;;;;3.67;2.40;;;4.30;99.90;;;;;;5094274;28;20460;-72
2022/04/11 03:32:36;;;;;;;3.13;2.40;;;4.30;99.90;;;;;;5093947;28;20973;-72
2022/04/11 03:35:03;;;;;;;2.90;2.17;;;4.30;99.90;;;;;;5094591;28;20457;-72
2022/04/11 03:37:30;;;;;;;5.00;2.70;;;4.30;99.90;;;;;;5098114;28;20525;-72
2022/04/11 03:39:58;;;;;;;6.40;3.50;;;4.30;99.90;;;;;;5098254;28;20453;-72
2022/04/11 03:42:24;;;;;;;7.63;3.10;;;4.30;99.90;;;;;;5098192;28;20453;-72
2022/04/11 03:44:51;;;;;;;11.07;3.57;;;4.30;99.90;;;;;;5097824;28;20457;-73
2022/04/11 03:47:18;;;;;;;5.27;2.33;;;4.30;99.90;;;;;;5098158;28;20453;-73
2022/04/11 03:49:44;;;;;;;5.97;3.10;;;4.20;99.90;;;;;;5097721;28;20526;-73
2022/04/11 03:52:11;;;;;;;5.70;3.40;;;4.20;99.90;;;;;;5097706;28;20481;-73
2022/04/11 03:54:38;;;;;;;10.73;3.30;;;4.20;99.90;;;;;;5097818;28;20996;-72
2022/04/11 03:57:06;;;;;;;8.03;2.93;;;4.10;99.90;;;;;;5097431;28;20897;-72
2022/04/11 03:59:33;;;;;;;5.20;2.60;;;4.10;99.90;;;;;;5097831;28;20483;-72
2022/04/11 04:01:59;;;;;;;5.53;2.40;;;4.10;99.90;;;;;;5097497;28;20518;-72
2022/04/11 04:04:26;;;;;;;5.93;2.90;;;4.10;99.90;;;;;;5097786;28;20467;-72
2022/04/11 04:06:53;;;;;;;5.20;2.70;;;4.10;99.90;;;;;;5097508;28;20469;-72
2022/04/11 04:09:19;;;;;;;8.13;2.93;;;4.00;99.90;;;;;;5097243;28;20472;-72
2022/04/11 04:11:46;;;;;;;3.77;2.40;;;4.00;99.90;;;;;;5097239;28;20453;-72
2022/04/11 04:14:14;;;;;;;4.83;3.00;;;4.00;99.90;;;;;;5097812;28;20878;-72
2022/04/11 04:16:41;;;;;;;5.70;3.10;;;4.00;99.90;;;;;;5097478;28;20454;-72
2022/04/11 04:19:08;;;;;;;9.80;3.03;;;3.90;99.90;;;;;;5097312;28;20457;-72
2022/04/11 04:21:34;;;;;;;4.53;3.43;;;3.90;99.90;;;;;;5097188;28;20461;-72
2022/04/11 04:24:01;;;;;;;3.83;3.03;;;3.90;99.90;;;;;;5097957;28;20460;-72
2022/04/11 04:26:27;;;;;;;5.60;3.53;;;3.90;99.90;;;;;;5098424;28;20461;-72
2022/04/11 04:28:54;;;;;;;6.80;2.77;;;3.90;99.90;;;;;;5097869;28;20457;-72
2022/04/11 04:31:22;;;;;;;6.43;3.17;;;3.90;99.90;;;;;;5097398;28;20462;-72
2022/04/11 04:33:49;;;;;;;7.10;3.67;;;3.90;99.90;;;;;;5096842;28;20510;-72
2022/04/11 04:36:15;;;;;;;6.03;2.70;;;3.90;99.90;;;;;;5097183;28;20517;-72
2022/04/11 04:38:42;;;;;;;4.90;2.73;;;3.90;99.90;;;;;;5096799;28;20454;-72
2022/04/11 04:41:09;;;;;;;16.27;3.33;;;3.90;99.90;;;;;;5097361;28;20480;-72
2022/04/11 04:43:38;;;;;;;7.47;3.30;;;3.90;99.90;;;;;;5097078;28;20471;-72
2022/04/11 04:46:04;;;;;;;5.40;2.90;;;4.00;99.90;;;;;;5097203;28;20788;-72
2022/04/11 04:48:32;;;;;;;5.73;2.93;;;4.00;99.90;;;;;;5096171;28;20564;-72
2022/04/11 04:50:59;;;;;;;3.90;3.10;;;4.00;99.90;;;;;;5097007;28;20468;-72
2022/04/11 04:53:26;;;;;;;6.53;3.30;;;4.00;99.90;;;;;;5096429;28;20528;-72
2022/04/11 04:55:53;;;;;;;10.80;3.63;;;4.00;99.90;;;;;;5096796;28;20816;-72
2022/04/11 04:58:19;;;;;;;5.60;3.37;;;4.00;99.90;;;;;;5096941;28;20454;-72
2022/04/11 05:00:46;;;;;;;7.00;3.17;;;4.00;99.90;;;;;;5096472;28;20462;-72
2022/04/11 05:03:13;;;;;;;4.30;3.07;;;4.00;99.90;;;;;;5096821;28;20503;-73
2022/04/11 05:05:41;;;;;;;9.53;3.50;;;4.10;99.90;;;;;;5096629;28;20469;-73
2022/04/11 05:08:08;;;;;;;4.83;3.33;;;4.10;99.90;;;;;;5096121;28;20925;-72
2022/04/11 05:10:34;;;;;;;6.63;3.60;;;4.10;99.90;;;;;;5096483;28;20457;-72
2022/04/11 05:13:01;;;;;;;9.30;4.13;;;4.10;99.90;;;;;;5096057;28;20477;-72
2022/04/11 05:15:29;;;;;;;5.93;3.80;;;4.20;99.90;;;;;;5096729;28;20457;-72
2022/04/11 05:17:55;;;;;;;6.80;3.80;;;4.20;99.90;;;;;;5096835;28;20457;-72
2022/04/11 05:20:25;;;;;;;9.10;4.27;;;4.20;99.90;;;;;;5096374;28;20457;-73
2022/04/11 05:22:53;;;;;;;7.93;3.17;;;4.30;99.90;;;;;;5096042;28;20453;-72
2022/04/11 05:25:20;;;;;;;10.17;4.13;;;4.30;99.90;;;;;;5095839;28;20468;-72
2022/04/11 05:27:47;;;;;;;6.83;3.90;;;4.30;99.90;;;;;;5095738;28;20901;-72
2022/04/11 05:30:14;;;;;;;6.70;3.40;;;4.40;99.90;;;;;;5095965;28;20761;-72
2022/04/11 05:32:40;;;;;;;7.03;4.03;;;4.40;99.90;;;;;;5096170;28;20584;-72
2022/04/11 05:35:09;;;;;;;5.40;3.57;;;4.40;99.90;;;;;;5095741;28;20460;-72
2022/04/11 05:37:35;;;;;;;7.43;3.60;;;4.50;99.90;;;;;;5095620;28;20926;-72
2022/04/11 05:40:05;;;;;;;5.10;3.30;;;4.50;99.90;;;;;;5096087;28;20593;-72
2022/04/11 05:42:32;;;;;;;6.80;3.87;;;4.60;99.90;;;;;;5095716;28;20782;-72
2022/04/11 05:44:59;;;;;;;4.63;3.40;;;4.60;99.90;;;;;;5095404;28;20452;-72
2022/04/11 05:47:25;;;;;;;7.50;3.70;;;4.60;99.90;;;;;;5095592;28;20473;-73
2022/04/11 05:49:52;;;;;;;9.13;3.70;;;4.60;99.90;;;;;;5095373;28;20852;-72
2022/04/11 05:52:21;;;;;;;7.00;3.90;;;4.70;99.90;;;;;;5095396;28;20472;-72
2022/04/11 05:54:47;;;;;;;4.20;3.43;;;4.70;99.90;;;;;;5095148;28;20953;-72
2022/04/11 05:57:16;;;;;;;5.33;3.17;;;4.70;99.90;;;;;;5096117;28;20464;-73
2022/04/11 05:59:43;;;;;;;16.23;4.47;;;4.70;99.90;;;;;;5095751;28;20457;-73
2022/04/11 06:02:10;;;;;;;5.30;3.97;;;4.80;99.90;;;;;;5095872;28;20457;-73
2022/04/11 06:04:37;;;;;;;5.70;3.37;;;4.80;99.90;;;;;;5096181;28;20445;-73
2022/04/11 06:07:04;;;;;;;6.50;2.70;;;4.90;99.90;;;;;;5095568;28;20466;-72
2022/04/11 06:09:31;;;;;;;4.40;3.03;;;5.00;99.90;;;;;;5095138;28;20453;-72
2022/04/11 06:11:58;;;;;;;5.83;3.30;;;5.00;99.90;;;;;;5095404;28;20462;-72
2022/04/11 06:14:26;;;;;;;14.83;3.63;;;5.00;99.90;;;;;;5095105;28;20485;-72
2022/04/11 06:16:53;;;;;;;7.60;3.17;;;5.10;99.90;;;;;;5095487;28;20497;-73
2022/04/11 06:19:19;;;;;;;5.30;2.80;;;5.10;99.90;;;;;;5095097;28;20453;-73
2022/04/11 06:21:46;;;;;;;8.67;4.17;;;5.20;99.90;;;;;;5094681;28;20461;-73
2022/04/11 06:24:13;;;;;;;4.03;3.37;;;5.20;99.90;;;;;;5095292;28;20453;-73
2022/04/11 06:26:40;;;;;;;3.77;3.10;;;5.30;99.90;;;;;;5094856;28;20457;-72
2022/04/11 06:29:06;;;;;;;5.90;3.10;;;5.30;99.90;;;;;;5095152;28;20828;-72
2022/04/11 06:31:34;;;;;;;5.20;3.17;;;5.30;99.90;;;;;;5094478;28;20511;-72
2022/04/11 06:34:01;;;;;;;4.80;2.90;;;5.40;99.90;;;;;;5095062;28;20485;-72
2022/04/11 06:36:28;;;;;;;3.87;2.90;;;5.50;99.90;;;;;;5094877;28;20453;-72
2022/04/11 06:38:54;;;;;;;7.53;3.27;;;5.50;99.90;;;;;;5094384;28;20518;-73
2022/04/11 06:41:21;;;;;;;3.50;2.70;;;5.60;99.90;;;;;;5095298;28;20465;-73
2022/04/11 06:43:48;;;;;;;3.77;2.70;;;5.70;99.90;;;;;;5095155;28;20913;-73
2022/04/11 06:46:17;;;;;;;5.63;3.03;;;5.80;99.90;;;;;;5094714;28;20845;-73
2022/04/11 06:48:48;;;;;;;6.33;3.47;;;5.80;99.90;;;;;;5094602;28;20472;-74
2022/04/11 06:51:15;;;;;;;4.20;2.90;;;5.80;99.90;;;;;;5094228;28;20445;-72
2022/04/11 06:53:41;;;;;;;4.60;2.57;;;5.90;99.90;;;;;;5094483;28;20507;-72
2022/04/11 06:56:08;;;;;;;3.13;2.43;;;6.00;99.90;;;;;;5094299;28;20488;-72
2022/04/11 06:58:35;;;;;;;6.40;2.20;;;6.00;99.90;;;;;;5094601;28;20469;-72
2022/04/11 07:01:01;;;;;;;3.73;2.30;;;6.10;99.90;;;;;;5094413;28;20476;-73
2022/04/11 07:03:31;;;;;;;9.13;2.77;;;6.10;99.90;;;;;;5094423;28;20483;-72
2022/04/11 07:05:59;;;;;;;2.70;2.20;;;6.10;99.90;;;;;;5094996;28;20454;-72
2022/04/11 07:08:26;;;;;;;4.37;2.83;;;6.20;99.90;;;;;;5094425;28;20453;-73
2022/04/11 07:10:52;;;;;;;4.67;2.53;;;6.20;99.90;;;;;;5096090;28;20822;-73
2022/04/11 07:13:19;;;;;;;5.27;2.37;;;6.30;99.90;;;;;;5097951;28;20491;-73
2022/04/11 07:15:46;;;;;;;4.10;1.80;;;6.30;99.90;;;;;;5099951;28;20457;-72
2022/04/11 07:18:12;;;;;;;5.33;2.43;;;6.30;99.90;;;;;;5097892;28;20536;-73
2022/04/11 07:20:39;;;;;;;4.90;2.50;;;6.40;99.90;;;;;;5098202;28;20469;-72
2022/04/11 07:23:07;;;;;;;3.37;2.47;;;6.50;99.90;;;;;;5098028;28;20453;-73
2022/04/11 07:25:34;;;;;;;9.17;2.13;;;6.60;99.90;;;;;;5099386;28;20530;-73
2022/04/11 07:28:01;;;;;;;3.13;2.10;;;6.60;99.90;;;;;;5098681;28;20521;-73
2022/04/11 07:30:27;;;;;;;4.10;1.93;;;6.70;99.90;;;;;;5098887;28;20464;-73
2022/04/11 07:32:54;;;;;;;7.40;1.77;;;6.70;99.90;;;;;;5098894;28;20518;-73
2022/04/11 07:35:21;;;;;;;3.77;2.00;;;6.80;99.90;;;;;;5098327;28;20472;-73
2022/04/11 07:37:47;;;;;;;4.67;2.20;;;6.80;99.90;;;;;;5097984;28;20484;-73
2022/04/11 07:40:15;;;;;;;5.10;2.00;;;6.90;99.90;;;;;;5098070;28;20457;-72
2022/04/11 07:42:42;;;;;;;4.23;2.20;;;7.00;99.90;;;;;;5097974;28;20460;-73
2022/04/11 07:45:10;;;;;;;3.63;2.00;;;7.00;99.90;;;;;;5097899;28;20901;-73
2022/04/11 07:47:37;;;;;;;6.73;2.20;;;7.10;99.90;;;;;;5098191;28;20517;-73
2022/04/11 07:50:04;;;;;;;1.70;1.50;;;7.20;99.90;;;;;;5097865;28;20574;-72
2022/04/11 07:52:30;;;;;;;4.30;2.07;;;7.20;99.90;;;;;;5097497;28;20552;-73
2022/04/11 07:54:57;;;;;;;3.17;1.80;;;7.30;99.90;;;;;;5097187;28;20514;-73
2022/04/11 07:57:25;;;;;;;3.00;1.70;;;7.30;99.90;;;;;;5097569;28;20460;-73
2022/04/11 07:59:52;;;;;;;8.23;1.60;;;7.30;99.90;;;;;;5097820;28;20592;-72
2022/04/11 08:02:24;;;;;;;2.43;1.83;;;7.30;99.90;;;;;;5097093;28;20909;-73
2022/04/11 08:04:51;;;;;;;4.83;1.57;;;7.40;99.90;;;;;;5097906;28;20434;-73
2022/04/11 08:07:17;;;;;;;5.47;2.10;;;7.40;99.90;;;;;;5098089;28;20456;-73
2022/04/11 08:09:44;;;;;;;2.63;1.80;;;7.50;99.90;;;;;;5098129;28;20487;-73
2022/04/11 08:12:11;;;;;;;3.80;2.07;;;7.50;99.90;;;;;;5097542;28;20902;-72
2022/04/11 08:14:40;;;;;;;2.53;1.60;;;7.50;99.90;;;;;;5097359;28;20557;-73
2022/04/11 08:17:07;;;;;;;3.30;1.57;;;7.60;99.90;;;;;;5097679;28;20501;-72
2022/04/11 08:19:34;;;;;;;2.13;1.50;;;7.70;99.90;;;;;;5097314;28;20457;-73
2022/04/11 08:22:00;;;;;;;8.87;1.93;;;7.80;99.90;;;;;;5097003;28;20461;-73
2022/04/11 08:24:27;;;;;;;4.57;1.53;;;7.80;99.90;;;;;;5097532;28;20464;-73
2022/04/11 08:26:54;;;;;;;5.50;1.90;;;7.80;99.90;;;;;;5098135;28;20465;-72
2022/04/11 08:29:21;;;;;;;2.40;1.30;;;7.80;99.90;;;;;;5098667;28;20536;-73
2022/04/11 08:31:49;;;;;;;5.80;1.73;;;7.90;99.90;;;;;;5097221;28;20469;-73
2022/04/11 08:34:16;;;;;;;3.50;1.30;;;8.00;99.90;;;;;;5096918;28;20477;-72
2022/04/11 08:36:43;;;;;;;3.20;1.50;;;8.10;99.90;;;;;;5096945;28;20914;-73
2022/04/11 08:39:10;;;;;;;5.30;1.30;;;8.10;99.90;;;;;;5097136;28;20457;-73
2022/04/11 08:41:38;;;;;;;2.70;1.10;;;8.10;99.90;;;;;;5096803;28;20458;-71
2022/04/11 08:44:06;;;;;;;2.70;1.50;;;8.20;99.90;;;;;;5096886;28;20459;-73
2022/04/11 08:46:34;;;;;;;2.77;1.80;;;8.30;99.90;;;;;;5097045;28;20464;-73
2022/04/11 08:49:04;;;;;;;5.80;1.53;;;8.40;99.90;;;;;;5096645;28;20762;-72
2022/04/11 08:51:32;;;;;;;3.50;1.83;;;8.50;99.90;;;;;;5096902;28;20914;-73
2022/04/11 08:54:00;;;;;;;1.60;1.10;;;8.60;99.90;;;;;;5096068;28;20485;-72
2022/04/11 08:56:27;;;;;;;2.03;1.60;;;8.60;99.90;;;;;;5096054;28;20575;-71
2022/04/11 08:58:54;;;;;;;3.43;1.27;;;8.60;99.90;;;;;;5096715;28;20594;-73
2022/04/11 09:01:21;;;;;;;2.07;1.47;;;8.70;99.90;;;;;;5096339;28;20789;-72
2022/04/11 09:03:48;;;;;;;5.37;1.70;;;8.70;99.90;;;;;;5095999;28;20460;-73
2022/04/11 09:06:17;;;;;;;7.30;2.20;;;8.70;99.90;;;;;;5096644;28;20483;-73
2022/04/11 09:08:51;;;;;;;3.70;1.50;;;8.80;99.90;;;;;;5096773;28;20514;-73
2022/04/11 09:11:29;;;;;;;5.10;2.00;;;8.90;99.90;;;;;;5096479;28;20456;-73
2022/04/11 09:13:56;;;;;;;2.33;1.50;;;9.00;99.90;;;;;;5096675;28;20469;-72
2022/04/11 09:16:22;;;;;;;5.57;1.40;;;9.00;99.90;;;;;;5096353;28;20472;-71
2022/04/11 09:18:52;;;;;;;2.43;1.23;;;9.00;99.90;;;;;;5095987;28;20548;-73
2022/04/11 09:21:21;;;;;;;2.00;1.40;;;9.10;99.90;;;;;;5096097;28;20494;-73
2022/04/11 09:23:48;;;;;;;1.47;1.27;;;9.20;99.90;;;;;;5096895;28;20453;-73
2022/04/11 09:26:17;;;;;;;3.10;1.20;;;9.30;99.90;;;;;;5095964;28;20458;-72
2022/04/11 09:28:43;;;;;;;3.87;1.20;;;9.30;99.90;;;;;;5096131;28;20967;-73
2022/04/11 09:31:10;;;;;;;3.30;1.40;;;9.20;99.90;;;;;;5096153;28;20491;-73
2022/04/11 09:33:39;;;;;;;3.20;1.47;;;9.20;99.90;;;;;;5095487;28;20920;-74
2022/04/11 09:36:06;;;;;;;2.33;1.10;;;9.30;99.90;;;;;;5095763;28;20457;-73
2022/04/11 09:38:38;;;;;;;1.20;1.10;;;9.20;99.10;;;;;;5095720;28;20453;-73
2022/04/11 09:41:06;;;;;;;2.63;1.10;;;9.30;97.60;;;;;;5095592;28;20517;-73
2022/04/11 09:43:34;;;;;;;2.50;1.30;;;9.20;97.60;;;;;;5095908;28;20841;-74
2022/04/11 09:46:02;;;;;;;6.20;1.40;;;9.30;97.80;;;;;;5095381;28;20469;-73
2022/04/11 09:48:32;;;;;;;1.37;1.07;;;9.30;97.70;;;;;;5095623;28;20457;-73
2022/04/11 09:51:00;;;;;;;2.80;1.30;;;9.40;97.40;;;;;;5095613;28;20453;-73
2022/04/11 09:53:32;;;;;;;6.10;1.70;;;9.50;96.50;;;;;;5095192;28;21011;-73
2022/04/11 09:56:04;;;;;;;1.70;1.30;;;9.50;97.90;;;;;;5095371;28;20487;-74
2022/04/11 09:58:33;;;;;;;2.07;1.30;;;9.60;98.30;;;;;;5095274;28;20499;-74
2022/04/11 10:01:02;;;;;;;2.43;1.50;;;9.70;96.90;;;;;;5095606;28;20448;-73
2022/04/11 10:03:29;;;;;;;2.03;1.57;;;9.70;96.80;;;;;;5095314;28;20461;-73
2022/04/11 10:05:57;;;;;;;3.93;2.50;;;9.80;97.00;;;;;;5095682;28;20449;-73
2022/04/11 10:08:25;;;;;;;2.10;1.60;;;9.90;96.30;;;;;;5095977;28;20457;-73
2022/04/11 10:10:56;;;;;;;2.70;1.30;;;10.00;95.00;;;;;;5095223;28;20454;-74
2022/04/11 10:13:24;;;;;;;2.57;1.43;;;10.10;94.30;;;;;;5094804;28;20429;-73
2022/04/11 10:15:51;;;;;;;1.67;1.30;;;10.30;93.60;;;;;;5096807;28;20481;-72
2022/04/11 10:18:22;;;;;;;2.37;1.47;;;10.40;93.50;;;;;;5095127;28;20532;-73
2022/04/11 10:20:52;;;;;;;2.03;1.33;;;10.40;91.10;;;;;;5095170;28;20437;-73
2022/04/11 10:23:30;;;;;;;3.67;1.80;;;10.40;92.10;;;;;;5095469;28;20453;-73
2022/04/11 10:25:59;;;;;;;1.93;1.30;;;10.60;91.20;;;;;;5095261;28;20433;-73
2022/04/11 10:28:29;;;;;;;2.03;1.60;;;10.70;90.40;;;;;;5095124;28;20457;-73
2022/04/11 10:31:08;;;;;;;3.60;1.90;;;10.80;89.30;;;;;;5095057;28;20564;-73
2022/04/11 10:33:46;;;;;;;2.07;1.83;;;10.90;88.90;;;;;;5094922;28;20522;-73
2022/04/11 10:36:30;;;;;;;3.00;1.83;;;10.90;85.60;;;;;;5094573;28;20797;-73
2022/04/11 10:39:28;;;;;;;2.30;1.63;;;11.00;85.00;;;;;;5094612;28;20490;-73
2022/04/11 10:42:10;;;;;;;2.77;1.60;;;10.90;82.30;;;;;;5090213;28;20522;-73
2022/04/11 10:44:39;;;;;;;2.70;1.60;;;10.80;82.20;;;;;;5094306;28;21039;-74
2022/04/11 10:47:36;;;;;;;3.47;1.67;;;10.80;82.00;;;;;;5094809;28;20485;-73
2022/04/11 10:50:25;;;;;;;3.13;1.77;;;10.80;79.70;;;;;;5095669;28;20442;-74
2022/04/11 10:52:55;;;;;;;3.00;1.33;;;10.80;78.70;;;;;;5096977;28;20464;-74
2022/04/11 10:55:23;;;;;;;2.50;1.20;;;10.80;76.80;;;;;;5096133;28;20469;-72
2022/04/11 10:57:52;;;;;;;2.20;1.53;;;10.80;74.80;;;;;;5094363;28;20843;-73
2022/04/11 11:00:21;;;;;;;6.60;1.73;;;10.90;76.40;;;;;;5094879;28;20463;-73
2022/04/11 11:03:17;;;;;;;2.63;1.43;;;10.90;75.10;;;;;;5094738;28;20468;-73
2022/04/11 11:05:45;;;;;;;2.60;1.50;;;11.10;75.40;;;;;;5032784;28;20776;-73
2022/04/11 11:08:34;;;;;;;2.93;1.60;;;11.20;74.70;;;;;;5080934;28;20849;-73
2022/04/11 11:11:12;;;;;;;1.93;1.30;;;11.40;73.20;;;;;;5094707;28;20479;-73
2022/04/11 11:13:40;;;;;;;3.83;1.70;;;11.50;72.80;;;;;;5094335;28;20464;-74
2022/04/11 11:16:28;;;;;;;3.83;1.70;;;11.60;70.80;;;;;;5094307;28;20573;-73
2022/04/11 11:19:17;;;;;;;14.13;1.80;;;11.50;68.60;;;;;;5094251;28;20480;-74
2022/04/11 11:22:14;;;;;;;2.63;1.70;;;11.60;66.30;;;;;;5094207;28;20544;-74
2022/04/11 11:25:15;;;;;;;5.57;1.47;;;11.80;64.70;;;;;;5094076;28;20536;-72
2022/04/11 11:27:42;;;;;;;2.20;1.23;;;12.20;64.70;;;;;;5094127;28;20988;-74
2022/04/11 11:30:09;;;;;;;2.73;1.70;;;12.70;62.80;;;;;;5093869;28;20465;-73
2022/04/11 11:32:40;;;;;;;4.43;1.47;;;12.80;60.20;;;;;;5094138;28;20461;-73
2022/04/11 11:35:08;;;;;;;3.33;1.93;;;12.70;59.80;;;;;;5094219;28;20837;-73
2022/04/11 11:37:35;;;;;;;4.47;1.50;;;12.60;58.80;;;;;;5094261;28;20514;-73
2022/04/11 11:40:03;;;;;;;2.20;1.30;;;12.80;59.30;;;;;;5094211;28;20518;-73
2022/04/11 11:42:35;;;;;;;2.00;1.20;;;12.90;59.20;;;;;;5094314;28;20468;-72
2022/04/11 11:45:02;;;;;;;3.70;1.40;;;13.50;57.10;;;;;;5094217;28;20457;-72
2022/04/11 11:47:29;;;;;;;3.10;1.20;;;14.00;56.50;;;;;;5095277;28;20453;-73
2022/04/11 11:50:03;;;;;;;3.53;1.60;;;14.50;54.10;;;;;;5098317;28;20468;-73
2022/04/11 11:52:30;;;;;;;1.60;1.20;;;15.00;53.30;;;;;;5099262;28;20463;-73
2022/04/11 11:54:57;;;;;;;3.97;1.40;;;15.50;52.20;;;;;;5100011;28;20576;-73
2022/04/11 11:57:28;;;;;;;3.57;1.60;;;15.80;48.80;;;;;;5098708;28;20468;-73
2022/04/11 11:59:56;;;;;;;4.97;1.33;;;15.90;47.60;;;;;;5099431;28;20444;-73
2022/04/11 12:05:21;;;;;;;2.60;1.20;;;15.20;49.30;;;;;;5100990;28;20425;-75
2022/04/11 12:07:49;;;;;;;3.33;1.50;;;15.20;51.70;;;;;;5100048;28;20900;-73
2022/04/11 12:10:17;;;;;;;2.70;1.40;;;15.80;50.70;;;;;;5099921;28;20467;-73
2022/04/11 12:12:45;;;;;;;2.70;1.40;;;16.20;50.70;;;;;;5099629;28;20553;-74
2022/04/11 12:15:13;;;;;;;3.00;1.47;;;16.60;48.90;;;;;;5099572;28;20509;-73
2022/04/11 12:17:42;;;;;;;2.50;1.40;;;17.10;45.10;;;;;;5100543;28;20786;-74
2022/04/11 12:20:12;;;;;;;3.43;1.43;;;17.00;43.00;;;;;;5097951;28;20464;-76
2022/04/11 12:22:41;;;;;;;4.27;1.70;;;16.50;42.70;;;;;;5100089;28;20453;-74
2022/04/11 12:25:22;;;;;;;2.33;1.40;;;15.80;42.00;;;;;;5103356;28;20453;-75
2022/04/11 12:27:50;;;;;;;2.23;1.20;;;15.10;43.70;;;;;;5097488;28;20457;-74
2022/04/11 12:30:17;;;;;;;2.20;1.13;;;15.10;45.60;;;;;;5097692;28;20481;-74
2022/04/11 12:32:44;;;;;;;2.70;1.47;;;15.90;45.00;;;;;;5098534;28;20538;-74
2022/04/11 12:35:15;;;;;;;2.50;1.40;;;16.50;44.50;;;;;;5098439;28;20473;-72
2022/04/11 12:37:49;;;;;;;4.00;1.30;;;16.80;43.60;;;;;;5097508;28;20910;-73
2022/04/11 12:40:16;;;;;;;4.87;1.47;;;16.90;41.30;;;;;;5097465;28;20539;-73
2022/04/11 12:42:43;;;;;;;3.93;1.40;;;16.90;41.60;;;;;;5097272;28;20457;-74
2022/04/11 12:45:13;;;;;;;3.00;1.60;;;17.30;41.70;;;;;;5096870;28;20454;-73
2022/04/11 12:48:02;;;;;;;3.37;1.60;;;17.20;41.50;;;;;;5097088;28;20485;-73
2022/04/11 12:50:30;;;;;;;5.53;1.90;;;17.10;42.00;;;;;;5097065;28;20471;-73
2022/04/11 12:52:58;;;;;;;1.70;1.60;;;17.10;42.20;;;;;;5096808;28;20461;-74
2022/04/11 12:55:26;;;;;;;3.70;1.50;;;17.00;42.20;;;;;;5096619;28;20645;-74
2022/04/11 12:58:04;;;;;;;2.07;1.80;;;16.80;41.80;;;;;;5096710;28;20464;-74
2022/04/11 13:00:32;;;;;;;2.67;1.67;;;17.00;42.10;;;;;;5097243;28;20449;-73
2022/04/11 13:02:58;;;;;;;5.50;1.87;;;17.50;41.10;;;;;;5096570;28;20472;-73
2022/04/11 13:05:26;;;;;;;2.20;1.50;;;17.90;41.00;;;;;;5096565;28;20879;-73